Time;durP1;ratioP1;P1;durP2;ratioP2;P2;SDS_P1;SDS_P2;PMS_P1;PMS_P2;Temp;Humidity;BMP_temperature;BMP_pressure;BME280_temperature;BME280_humidity;BME280_pressure;Samples;Min_cycle;Max_cycle;Signal;HPM_P1;HPM_P2
2021/09/02 00:00:58;;;;;;;30.10;12.75;;;12.60;97.40;;;;;;5000112;28;20069;-65
2021/09/02 00:03:24;;;;;;;27.38;12.90;;;12.60;97.40;;;;;;4999568;28;20287;-66
2021/09/02 00:05:50;;;;;;;37.42;12.90;;;12.60;97.40;;;;;;5006235;28;20033;-65
2021/09/02 00:08:15;;;;;;;34.50;13.73;;;12.60;97.30;;;;;;5003819;28;20517;-65
2021/09/02 00:10:41;;;;;;;37.70;12.98;;;12.50;97.40;;;;;;5002191;28;20026;-64
2021/09/02 00:13:07;;;;;;;28.95;12.57;;;12.50;97.50;;;;;;5006327;28;20060;-63
2021/09/02 00:15:33;;;;;;;31.23;12.95;;;12.50;97.40;;;;;;5003027;28;20029;-66
2021/09/02 00:18:00;;;;;;;28.42;13.77;;;12.50;97.40;;;;;;5006219;28;20654;-65
2021/09/02 00:20:27;;;;;;;28.88;13.52;;;12.50;97.40;;;;;;5001898;28;20100;-65
2021/09/02 00:22:52;;;;;;;31.05;13.50;;;12.50;97.40;;;;;;5005382;28;20060;-65
2021/09/02 00:25:18;;;;;;;22.80;12.60;;;12.40;97.40;;;;;;5005065;28;20026;-65
2021/09/02 00:27:43;;;;;;;29.23;12.75;;;12.30;97.30;;;;;;4999002;28;20032;-66
2021/09/02 00:30:10;;;;;;;20.50;11.85;;;12.30;97.30;;;;;;5001619;28;20362;-64
2021/09/02 00:32:35;;;;;;;29.13;12.32;;;12.20;97.00;;;;;;4996135;28;20029;-66
2021/09/02 00:35:01;;;;;;;28.52;12.02;;;12.10;97.00;;;;;;5001304;28;20030;-66
2021/09/02 00:37:27;;;;;;;24.80;11.32;;;12.10;96.80;;;;;;5006357;28;20026;-65
2021/09/02 00:39:52;;;;;;;28.63;11.93;;;12.00;96.70;;;;;;5002220;28;20037;-65
2021/09/02 00:42:18;;;;;;;28.38;11.48;;;12.00;96.70;;;;;;5008878;28;20588;-65
2021/09/02 00:44:46;;;;;;;27.52;12.85;;;12.00;96.80;;;;;;5001847;28;20029;-63
2021/09/02 00:47:13;;;;;;;27.63;13.18;;;11.90;96.80;;;;;;5006282;28;20025;-66
2021/09/02 00:49:40;;;;;;;24.58;12.25;;;11.90;97.00;;;;;;4999262;28;20037;-66
2021/09/02 00:52:27;;;;;;;30.45;12.88;;;11.80;96.80;;;;;;5003705;28;20335;-66
2021/09/02 00:54:56;;;;;;;21.17;10.50;;;11.90;97.10;;;;;;5003334;28;20076;-65
2021/09/02 00:57:25;;;;;;;21.90;10.73;;;11.80;96.70;;;;;;5006696;28;20025;-67
2021/09/02 00:59:52;;;;;;;28.55;11.05;;;11.80;96.70;;;;;;5009135;28;20094;-66
2021/09/02 01:02:19;;;;;;;24.05;11.05;;;11.70;96.70;;;;;;5005285;28;20100;-64
2021/09/02 01:04:45;;;;;;;25.85;11.63;;;11.60;96.80;;;;;;5000732;28;20117;-65
2021/09/02 01:07:11;;;;;;;28.02;11.88;;;11.60;96.90;;;;;;5005531;28;20456;-66
2021/09/02 01:09:37;;;;;;;16.63;9.27;;;11.60;97.10;;;;;;4995184;28;20482;-67
2021/09/02 01:12:27;;;;;;;17.80;8.98;;;11.50;97.10;;;;;;5000752;28;20030;-66
2021/09/02 01:14:53;;;;;;;15.55;8.63;;;11.40;97.00;;;;;;4994226;28;20073;-64
2021/09/02 01:17:23;;;;;;;14.57;7.68;;;11.40;96.90;;;;;;4993942;28;20038;-66
2021/09/02 01:19:51;;;;;;;23.57;8.60;;;11.30;96.70;;;;;;4999001;28;20490;-64
2021/09/02 01:22:18;;;;;;;22.67;9.90;;;11.30;96.90;;;;;;5000634;28;20141;-64
2021/09/02 01:24:44;;;;;;;27.02;10.65;;;11.30;97.10;;;;;;4997188;28;20021;-65
2021/09/02 01:27:10;;;;;;;48.05;12.23;;;11.30;97.40;;;;;;4994803;28;20058;-65
2021/09/02 01:29:35;;;;;;;30.38;12.05;;;11.30;97.60;;;;;;5002332;28;20080;-66
2021/09/02 01:32:01;;;;;;;45.00;12.23;;;11.30;97.70;;;;;;5006034;28;20140;-66
2021/09/02 01:34:27;;;;;;;34.03;10.50;;;11.30;97.60;;;;;;5007731;28;20505;-66
2021/09/02 01:36:52;;;;;;;38.15;9.77;;;11.20;97.60;;;;;;4996777;28;20109;-66
2021/09/02 01:39:19;;;;;;;45.08;10.77;;;11.20;97.70;;;;;;4998096;28;20394;-65
2021/09/02 01:41:45;;;;;;;43.85;9.48;;;11.30;97.70;;;;;;5008244;28;20389;-65
2021/09/02 01:44:10;;;;;;;34.33;10.10;;;11.20;97.60;;;;;;5003670;28;20036;-65
2021/09/02 01:46:36;;;;;;;22.95;8.98;;;11.20;97.60;;;;;;4994236;28;20085;-64
2021/09/02 01:49:02;;;;;;;23.10;9.60;;;11.20;97.70;;;;;;4995953;28;20025;-67
2021/09/02 01:51:28;;;;;;;30.13;9.57;;;11.10;97.60;;;;;;5003864;28;20396;-67
2021/09/02 01:53:53;;;;;;;22.08;8.88;;;11.10;97.50;;;;;;5002253;28;20030;-67
2021/09/02 01:56:19;;;;;;;23.48;8.23;;;11.10;97.60;;;;;;5004097;28;20121;-65
2021/09/02 01:58:45;;;;;;;20.58;8.25;;;11.10;97.50;;;;;;5002003;28;20286;-66
2021/09/02 02:01:11;;;;;;;22.60;8.35;;;11.10;97.40;;;;;;4999178;28;20432;-67
2021/09/02 02:03:37;;;;;;;20.30;8.02;;;11.10;97.20;;;;;;5005803;28;20387;-67
2021/09/02 02:06:02;;;;;;;31.67;9.15;;;11.00;97.30;;;;;;5004253;28;20097;-66
2021/09/02 02:08:28;;;;;;;35.58;8.70;;;11.00;97.30;;;;;;5006021;28;20030;-64
2021/09/02 02:10:53;;;;;;;29.90;10.45;;;11.00;97.40;;;;;;4999989;28;20144;-66
2021/09/02 02:13:19;;;;;;;39.70;9.63;;;11.00;97.50;;;;;;5004419;28;20425;-66
2021/09/02 02:15:44;;;;;;;34.63;10.07;;;11.00;97.70;;;;;;4993823;28;20033;-64
2021/09/02 02:18:10;;;;;;;47.80;10.10;;;11.00;97.70;;;;;;5000978;28;20054;-66
2021/09/02 02:20:36;;;;;;;42.30;11.13;;;10.90;97.70;;;;;;5000555;28;20508;-66
2021/09/02 02:23:01;;;;;;;26.50;10.27;;;10.80;97.70;;;;;;5005145;28;20022;-66
2021/09/02 02:25:27;;;;;;;34.88;10.25;;;10.80;97.80;;;;;;4997487;28;20416;-64
2021/09/02 02:27:53;;;;;;;37.65;10.52;;;10.80;97.90;;;;;;4997481;28;20094;-66
2021/09/02 02:30:20;;;;;;;37.75;10.75;;;10.80;97.90;;;;;;5000762;28;20323;-66
2021/09/02 02:32:46;;;;;;;47.38;11.60;;;10.80;97.90;;;;;;4993113;28;20038;-67
2021/09/02 02:35:13;;;;;;;24.98;10.40;;;10.80;97.90;;;;;;5012385;28;20179;-66
2021/09/02 02:37:38;;;;;;;31.98;11.85;;;10.90;98.00;;;;;;5004974;28;20026;-65
2021/09/02 02:40:05;;;;;;;35.42;13.45;;;10.90;97.90;;;;;;5002835;28;20053;-64
2021/09/02 02:42:31;;;;;;;42.55;13.18;;;10.90;97.80;;;;;;5006050;28;20187;-65
2021/09/02 02:44:56;;;;;;;49.28;13.43;;;11.00;97.80;;;;;;5003285;28;20104;-64
2021/09/02 02:47:22;;;;;;;31.33;11.88;;;11.10;97.80;;;;;;5001770;28;20164;-67
2021/09/02 02:49:48;;;;;;;33.05;12.07;;;11.00;97.70;;;;;;4992741;28;20117;-66
2021/09/02 02:52:13;;;;;;;40.03;12.75;;;11.10;97.80;;;;;;4999263;28;20033;-66
2021/09/02 02:54:39;;;;;;;27.52;13.13;;;11.10;97.70;;;;;;5001314;28;20030;-65
2021/09/02 02:57:04;;;;;;;43.25;12.00;;;11.10;97.80;;;;;;4991683;28;20536;-66
2021/09/02 02:59:30;;;;;;;29.38;12.15;;;11.00;97.70;;;;;;4977401;28;20116;-66
2021/09/02 03:01:56;;;;;;;41.38;11.90;;;11.00;97.80;;;;;;5004882;28;20030;-64
2021/09/02 03:04:21;;;;;;;42.45;11.80;;;11.00;97.90;;;;;;5004414;28;20028;-67
2021/09/02 03:06:47;;;;;;;39.95;11.93;;;11.00;97.90;;;;;;5007481;28;20327;-67
2021/09/02 03:09:12;;;;;;;38.63;11.65;;;11.00;97.90;;;;;;4993809;28;20469;-66
2021/09/02 03:11:38;;;;;;;36.00;13.23;;;11.00;98.00;;;;;;5000633;28;20421;-65
2021/09/02 03:14:04;;;;;;;45.05;13.40;;;11.00;98.10;;;;;;5003281;28;20041;-66
2021/09/02 03:16:29;;;;;;;44.08;13.90;;;10.90;98.00;;;;;;4999795;28;20048;-66
2021/09/02 03:18:55;;;;;;;52.65;13.20;;;11.00;98.10;;;;;;4999472;28;20435;-66
2021/09/02 03:21:21;;;;;;;42.83;12.88;;;10.90;98.00;;;;;;4998594;28;20549;-66
2021/09/02 03:23:46;;;;;;;41.70;12.82;;;10.90;98.10;;;;;;4990965;28;20022;-66
2021/09/02 03:26:13;;;;;;;36.17;11.70;;;10.90;98.10;;;;;;4984658;28;20477;-66
2021/09/02 03:28:38;;;;;;;38.00;12.52;;;10.90;98.00;;;;;;4998013;28;20025;-66
2021/09/02 03:31:04;;;;;;;41.90;11.88;;;10.80;98.00;;;;;;5009963;28;20046;-65
2021/09/02 03:33:29;;;;;;;39.80;11.57;;;10.80;98.00;;;;;;5009202;28;21896;-66
2021/09/02 03:35:55;;;;;;;45.95;11.32;;;10.80;98.00;;;;;;5002886;28;20072;-66
2021/09/02 03:38:20;;;;;;;44.53;10.95;;;10.80;98.00;;;;;;5002462;28;20034;-66
2021/09/02 03:40:46;;;;;;;49.28;11.98;;;10.80;98.00;;;;;;5011788;28;20391;-66
2021/09/02 03:43:12;;;;;;;34.63;11.45;;;10.70;98.10;;;;;;4999041;28;20037;-64
2021/09/02 03:45:37;;;;;;;33.85;10.23;;;10.70;98.20;;;;;;5003504;28;20262;-66
2021/09/02 03:48:03;;;;;;;34.60;10.73;;;10.70;98.20;;;;;;5005150;28;20030;-64
2021/09/02 03:50:29;;;;;;;35.03;10.90;;;10.70;98.20;;;;;;5006876;28;20046;-65
2021/09/02 03:52:54;;;;;;;52.40;11.93;;;10.70;98.30;;;;;;4997708;28;20085;-65
2021/09/02 03:55:20;;;;;;;58.75;12.07;;;10.70;98.30;;;;;;5004669;28;20026;-65
2021/09/02 03:57:46;;;;;;;49.22;12.02;;;10.70;98.40;;;;;;4999530;28;20036;-66
2021/09/02 04:00:12;;;;;;;38.35;11.95;;;10.70;98.50;;;;;;5005743;28;20037;-66
2021/09/02 04:02:39;;;;;;;43.10;12.70;;;10.70;98.60;;;;;;5000228;28;20027;-65
2021/09/02 04:05:06;;;;;;;55.00;13.23;;;10.70;98.60;;;;;;5001537;28;20485;-67
2021/09/02 04:07:33;;;;;;;64.60;12.80;;;10.70;98.60;;;;;;5012175;28;20032;-67
2021/09/02 04:09:58;;;;;;;55.08;12.13;;;10.70;98.60;;;;;;5005646;28;20025;-66
2021/09/02 04:12:24;;;;;;;64.43;11.98;;;10.70;98.60;;;;;;5013742;28;20104;-66
2021/09/02 04:14:50;;;;;;;54.95;10.45;;;10.70;98.60;;;;;;5011542;28;20026;-65
2021/09/02 04:17:16;;;;;;;53.85;10.23;;;10.60;98.60;;;;;;5003856;28;20038;-66
2021/09/02 04:19:41;;;;;;;46.15;10.85;;;10.60;98.60;;;;;;5009734;28;20104;-65
2021/09/02 04:22:07;;;;;;;50.45;10.07;;;10.50;98.50;;;;;;5010017;28;20080;-64
2021/09/02 04:24:33;;;;;;;30.45;9.52;;;10.50;98.60;;;;;;5010036;28;20048;-62
2021/09/02 04:26:59;;;;;;;40.25;10.20;;;10.50;98.70;;;;;;4997142;28;20033;-65
2021/09/02 04:29:24;;;;;;;34.10;11.02;;;10.50;98.70;;;;;;5000643;28;20039;-64
2021/09/02 04:31:50;;;;;;;34.17;11.02;;;10.50;98.70;;;;;;5006929;28;20028;-63
2021/09/02 04:34:15;;;;;;;44.05;11.00;;;10.50;98.70;;;;;;5005676;28;20170;-63
2021/09/02 04:36:41;;;;;;;22.80;11.15;;;10.50;98.80;;;;;;4994053;28;20026;-63
2021/09/02 04:39:07;;;;;;;41.95;9.98;;;10.40;98.70;;;;;;4994687;28;20037;-63
2021/09/02 04:41:33;;;;;;;38.65;10.27;;;10.40;98.70;;;;;;5001902;28;20073;-63
2021/09/02 04:43:59;;;;;;;33.33;10.13;;;10.40;98.70;;;;;;5002105;28;20032;-64
2021/09/02 04:46:25;;;;;;;40.92;9.73;;;10.40;98.70;;;;;;5004084;28;20473;-64
2021/09/02 04:48:50;;;;;;;36.20;9.60;;;10.50;98.70;;;;;;4998277;28;20034;-63
2021/09/02 04:51:16;;;;;;;36.33;10.00;;;10.50;98.70;;;;;;4995246;28;20058;-61
2021/09/02 04:53:43;;;;;;;35.20;9.98;;;10.50;98.70;;;;;;5000230;28;20195;-62
2021/09/02 04:56:09;;;;;;;26.13;9.43;;;10.40;98.70;;;;;;5019529;28;20102;-63
2021/09/02 04:58:35;;;;;;;38.63;9.55;;;10.50;98.70;;;;;;5001363;28;20092;-61
2021/09/02 05:01:01;;;;;;;40.42;10.43;;;10.50;98.60;;;;;;4994307;28;20126;-62
2021/09/02 05:03:27;;;;;;;33.78;9.73;;;10.50;98.50;;;;;;5006408;28;20453;-64
2021/09/02 05:05:52;;;;;;;27.13;9.32;;;10.60;98.60;;;;;;5002148;28;20092;-61
2021/09/02 05:08:18;;;;;;;31.45;9.27;;;10.60;98.60;;;;;;5004393;28;20036;-64
2021/09/02 05:10:43;;;;;;;23.52;9.75;;;10.70;98.60;;;;;;5002065;28;20250;-62
2021/09/02 05:13:09;;;;;;;46.67;9.75;;;10.80;98.50;;;;;;5003322;28;20021;-62
2021/09/02 05:15:35;;;;;;;28.55;8.93;;;10.70;98.40;;;;;;5003736;28;20033;-63
2021/09/02 05:18:00;;;;;;;36.42;8.93;;;10.70;98.30;;;;;;5001856;28;20087;-63
2021/09/02 05:20:26;;;;;;;32.33;8.70;;;10.60;98.30;;;;;;5003357;28;20069;-62
2021/09/02 05:22:51;;;;;;;29.75;8.20;;;10.70;98.40;;;;;;5001078;28;20164;-63
2021/09/02 05:25:18;;;;;;;43.25;9.48;;;10.60;98.30;;;;;;4998592;28;20053;-63
2021/09/02 05:27:44;;;;;;;30.05;9.07;;;10.70;98.30;;;;;;5000232;28;20018;-64
2021/09/02 05:30:11;;;;;;;27.15;8.52;;;10.70;98.40;;;;;;5000307;28;20022;-64
2021/09/02 05:32:38;;;;;;;30.30;8.73;;;10.70;98.30;;;;;;5010960;28;20055;-63
2021/09/02 05:35:04;;;;;;;21.75;7.65;;;10.70;98.30;;;;;;5007138;28;20045;-63
2021/09/02 05:37:30;;;;;;;16.98;7.88;;;10.70;98.30;;;;;;5006888;28;20079;-63
2021/09/02 05:39:55;;;;;;;20.73;8.07;;;10.80;98.40;;;;;;5002231;28;20431;-63
2021/09/02 05:42:21;;;;;;;44.58;8.40;;;10.90;98.30;;;;;;5012664;28;20075;-61
2021/09/02 05:44:46;;;;;;;25.98;7.97;;;10.90;98.20;;;;;;5005766;28;20030;-63
2021/09/02 05:47:12;;;;;;;49.20;8.00;;;11.00;98.20;;;;;;5004076;28;20489;-64
2021/09/02 05:49:38;;;;;;;37.85;7.25;;;10.90;97.90;;;;;;5002013;28;20026;-61
2021/09/02 05:52:03;;;;;;;29.63;7.72;;;10.90;98.00;;;;;;5005689;28;20192;-63
2021/09/02 05:54:29;;;;;;;15.48;7.97;;;11.00;98.00;;;;;;5004115;28;21071;-64
2021/09/02 05:56:55;;;;;;;19.02;7.47;;;11.10;98.10;;;;;;5007223;28;20499;-64
2021/09/02 05:59:21;;;;;;;20.10;7.93;;;11.10;98.10;;;;;;5005461;28;20022;-62
2021/09/02 06:01:47;;;;;;;20.02;7.78;;;11.10;98.00;;;;;;5009732;28;20113;-61
2021/09/02 06:04:12;;;;;;;17.67;8.02;;;11.20;97.90;;;;;;5008912;28;20516;-63
2021/09/02 06:06:38;;;;;;;18.00;7.93;;;11.30;97.90;;;;;;5005508;28;20126;-63
2021/09/02 06:09:04;;;;;;;12.38;7.35;;;11.40;97.90;;;;;;4999896;28;20101;-69
2021/09/02 06:11:29;;;;;;;14.45;7.68;;;11.40;97.90;;;;;;5014095;28;20033;-61
2021/09/02 06:13:55;;;;;;;15.70;7.45;;;11.40;97.70;;;;;;5000880;28;20354;-62
2021/09/02 06:16:21;;;;;;;15.13;7.88;;;11.40;97.60;;;;;;5003966;28;20516;-62
2021/09/02 06:18:48;;;;;;;17.20;7.65;;;11.40;97.70;;;;;;5006015;28;20030;-64
2021/09/02 06:21:13;;;;;;;14.50;7.72;;;11.50;97.70;;;;;;5004398;28;20029;-64
2021/09/02 06:23:39;;;;;;;35.10;7.75;;;11.60;97.80;;;;;;5006811;28;20034;-62
2021/09/02 06:26:05;;;;;;;17.00;7.40;;;11.70;97.60;;;;;;5006334;28;20034;-62
2021/09/02 06:28:31;;;;;;;15.10;7.50;;;11.70;97.60;;;;;;5005607;28;20042;-60
2021/09/02 06:30:56;;;;;;;21.42;7.35;;;11.80;97.50;;;;;;5004469;28;20388;-61
2021/09/02 06:33:22;;;;;;;13.77;7.45;;;11.80;97.30;;;;;;5009330;28;20143;-61
2021/09/02 06:35:48;;;;;;;11.68;7.55;;;12.00;97.40;;;;;;4997081;28;20026;-61
2021/09/02 06:38:13;;;;;;;12.70;7.70;;;12.10;97.30;;;;;;5005261;28;20038;-61
2021/09/02 06:40:39;;;;;;;11.90;6.72;;;12.20;97.00;;;;;;5003326;28;20370;-62
2021/09/02 06:43:04;;;;;;;12.70;7.82;;;12.30;97.00;;;;;;5003493;28;20060;-63
2021/09/02 06:45:30;;;;;;;11.80;8.13;;;12.30;96.80;;;;;;4990229;28;20030;-62
2021/09/02 06:47:56;;;;;;;14.48;8.27;;;12.50;96.90;;;;;;5001290;28;20026;-61
2021/09/02 06:50:21;;;;;;;11.13;7.47;;;12.60;96.70;;;;;;4999397;28;20032;-62
2021/09/02 06:52:47;;;;;;;14.23;8.25;;;12.70;96.60;;;;;;5005514;28;20026;-63
2021/09/02 06:55:12;;;;;;;13.85;7.97;;;12.80;96.40;;;;;;5003994;28;20396;-63
2021/09/02 06:57:38;;;;;;;16.15;8.45;;;12.90;96.40;;;;;;5004320;28;20022;-61
2021/09/02 07:00:07;;;;;;;12.38;7.90;;;13.10;96.40;;;;;;4999250;28;20112;-60
2021/09/02 07:02:33;;;;;;;11.85;8.43;;;13.10;96.20;;;;;;4998017;28;20608;-61
2021/09/02 07:04:59;;;;;;;14.23;8.63;;;13.30;96.00;;;;;;4984727;28;20030;-62
2021/09/02 07:07:25;;;;;;;17.45;8.30;;;13.50;95.60;;;;;;5012659;28;20041;-60
2021/09/02 07:09:50;;;;;;;13.70;7.40;;;13.60;95.40;;;;;;5003140;28;20018;-63
2021/09/02 07:12:16;;;;;;;14.90;8.63;;;13.70;95.10;;;;;;5005548;28;20033;-62
2021/09/02 07:14:42;;;;;;;15.00;9.10;;;13.80;95.00;;;;;;5003917;28;20025;-62
2021/09/02 07:17:07;;;;;;;16.17;8.35;;;13.80;94.80;;;;;;5003523;28;20456;-62
2021/09/02 07:19:33;;;;;;;14.10;8.38;;;13.90;94.90;;;;;;5001430;28;20030;-63
2021/09/02 07:21:59;;;;;;;16.13;8.73;;;14.00;94.60;;;;;;5000446;28;20092;-62
2021/09/02 07:24:24;;;;;;;15.82;8.57;;;13.90;94.10;;;;;;5003154;28;20056;-62
2021/09/02 07:26:50;;;;;;;16.98;8.55;;;14.00;94.00;;;;;;4997051;28;20037;-61
2021/09/02 07:29:16;;;;;;;18.00;9.85;;;14.10;93.80;;;;;;5003219;28;20116;-60
2021/09/02 07:31:43;;;;;;;19.17;8.50;;;14.20;93.90;;;;;;5005457;28;20034;-60
2021/09/02 07:34:09;;;;;;;22.80;9.35;;;14.30;93.90;;;;;;4987243;28;20478;-63
2021/09/02 07:36:37;;;;;;;15.13;8.60;;;14.50;94.10;;;;;;5000906;28;20037;-62
2021/09/02 07:39:04;;;;;;;14.38;9.18;;;14.70;93.20;;;;;;5000680;28;20355;-63
2021/09/02 07:41:30;;;;;;;14.13;8.73;;;14.80;92.90;;;;;;5000104;28;20488;-63
2021/09/02 07:43:55;;;;;;;16.48;8.45;;;15.00;92.90;;;;;;5004413;28;20026;-63
2021/09/02 07:46:21;;;;;;;17.52;8.52;;;15.00;92.40;;;;;;5004195;28;20054;-62
2021/09/02 07:48:47;;;;;;;14.65;8.43;;;15.10;92.00;;;;;;5000806;28;20068;-63
2021/09/02 07:51:15;;;;;;;18.08;8.60;;;15.20;92.20;;;;;;5002857;28;20030;-62
2021/09/02 07:53:41;;;;;;;14.25;8.07;;;15.40;91.80;;;;;;4987065;28;20038;-63
2021/09/02 07:56:07;;;;;;;16.20;9.35;;;15.40;91.60;;;;;;5004149;28;20400;-63
2021/09/02 07:58:33;;;;;;;16.25;9.35;;;15.60;92.00;;;;;;5006803;28;20037;-62
2021/09/02 08:01:00;;;;;;;18.73;9.82;;;15.70;91.80;;;;;;5007354;28;20034;-62
2021/09/02 08:03:26;;;;;;;19.65;8.70;;;15.80;91.50;;;;;;5001923;28;20038;-62
2021/09/02 08:05:52;;;;;;;16.52;8.68;;;15.80;91.80;;;;;;4995866;28;20029;-62
2021/09/02 08:08:18;;;;;;;15.45;9.00;;;16.00;91.60;;;;;;4996801;28;20121;-63
2021/09/02 08:10:45;;;;;;;21.33;9.15;;;16.10;90.50;;;;;;4991787;28;20125;-62
2021/09/02 08:13:11;;;;;;;18.42;8.40;;;16.20;90.20;;;;;;5004098;28;20037;-60
2021/09/02 08:15:37;;;;;;;18.67;8.35;;;16.30;89.80;;;;;;5006944;28;20021;-63
2021/09/02 08:18:04;;;;;;;20.60;8.27;;;16.50;90.00;;;;;;5010649;28;20226;-63
2021/09/02 08:20:30;;;;;;;17.55;7.90;;;16.70;89.80;;;;;;5003403;28;20033;-62
2021/09/02 08:22:57;;;;;;;14.93;8.05;;;17.00;90.30;;;;;;5004522;28;20040;-62
2021/09/02 08:25:23;;;;;;;21.35;9.13;;;17.00;87.80;;;;;;5003312;28;20025;-67
2021/09/02 08:27:49;;;;;;;20.83;8.80;;;17.00;87.30;;;;;;5002465;28;20026;-65
2021/09/02 08:30:17;;;;;;;17.92;8.35;;;17.00;87.00;;;;;;4996897;28;20670;-65
2021/09/02 08:32:47;;;;;;;21.42;8.15;;;17.20;87.40;;;;;;4997911;28;20034;-64
2021/09/02 08:35:22;;;;;;;20.42;8.30;;;17.30;86.80;;;;;;4993076;28;20033;-64
2021/09/02 08:37:53;;;;;;;16.85;8.65;;;17.50;86.80;;;;;;5002754;28;20293;-71
2021/09/02 08:40:21;;;;;;;14.68;7.85;;;17.50;86.50;;;;;;4996201;28;20022;-63
2021/09/02 08:42:48;;;;;;;14.65;8.20;;;17.50;86.20;;;;;;5014602;28;20038;-65
2021/09/02 08:45:14;;;;;;;16.55;8.15;;;17.60;85.70;;;;;;5000752;28;20039;-67
2021/09/02 08:47:45;;;;;;;15.43;8.20;;;17.70;84.70;;;;;;5006181;28;20030;-65
2021/09/02 08:50:10;;;;;;;;;;;17.80;83.70;;;;;;5006388;28;20030;-65
2021/09/02 08:52:37;;;;;;;21.15;7.78;;;17.90;83.60;;;;;;5006302;28;19969;-63
2021/09/02 08:55:04;;;;;;;18.02;7.90;;;18.00;84.20;;;;;;5000933;28;20174;-62
2021/09/02 08:57:30;;;;;;;17.30;7.85;;;18.10;84.20;;;;;;5012132;28;20125;-62
2021/09/02 08:59:57;;;;;;;18.58;7.93;;;18.10;83.30;;;;;;4998995;28;20386;-70
2021/09/02 09:02:28;;;;;;;14.43;7.07;;;18.00;83.00;;;;;;5007118;28;20072;-65
2021/09/02 09:05:00;;;;;;;15.40;7.80;;;18.10;82.60;;;;;;5008750;28;20534;-65
2021/09/02 09:07:32;;;;;;;19.85;8.32;;;18.10;82.40;;;;;;5008424;28;20026;-66
2021/09/02 09:09:59;;;;;;;16.83;7.50;;;18.20;82.10;;;;;;5002992;28;20158;-65
2021/09/02 09:12:35;;;;;;;13.45;7.35;;;18.30;81.20;;;;;;5002409;28;20030;-66
2021/09/02 09:15:01;;;;;;;18.60;7.22;;;18.40;79.20;;;;;;4998623;28;20120;-64
2021/09/02 09:17:26;;;;;;;17.77;7.18;;;18.50;79.20;;;;;;5004554;28;20445;-63
2021/09/02 09:19:53;;;;;;;11.38;6.10;;;18.50;76.60;;;;;;4997530;28;20544;-66
2021/09/02 09:22:22;;;;;;;13.95;6.32;;;18.60;76.60;;;;;;5003166;28;20306;-64
2021/09/02 09:24:55;;;;;;;14.50;6.65;;;18.40;76.70;;;;;;5002054;28;20033;-66
2021/09/02 09:27:23;;;;;;;16.80;6.55;;;18.40;75.90;;;;;;5000171;28;20698;-66
2021/09/02 09:30:14;;;;;;;16.23;6.50;;;18.40;76.70;;;;;;5002507;28;20030;-64
2021/09/02 09:32:41;;;;;;;13.43;5.97;;;18.30;76.10;;;;;;5003827;28;20490;-65
2021/09/02 09:35:11;;;;;;;13.60;6.13;;;18.40;77.30;;;;;;5001654;28;20638;-66
2021/09/02 09:37:37;;;;;;;16.10;6.13;;;18.30;74.60;;;;;;4996446;28;20539;-66
2021/09/02 09:40:09;;;;;;;13.00;5.90;;;18.40;74.80;;;;;;5005924;28;20186;-64
2021/09/02 09:42:34;;;;;;;15.55;5.85;;;18.40;74.20;;;;;;5003441;28;20117;-67
2021/09/02 09:45:00;;;;;;;12.55;6.38;;;18.50;73.10;;;;;;5002245;28;20097;-66
2021/09/02 09:47:27;;;;;;;11.95;5.82;;;18.40;74.50;;;;;;5004950;28;20018;-66
2021/09/02 09:49:57;;;;;;;12.88;5.50;;;18.30;75.40;;;;;;5005766;28;20500;-64
2021/09/02 09:52:49;;;;;;;12.43;6.10;;;18.50;74.20;;;;;;4997636;28;20062;-65
2021/09/02 09:55:18;;;;;;;13.68;5.80;;;18.90;72.80;;;;;;4999410;28;21909;-66
2021/09/02 09:57:46;;;;;;;14.82;5.80;;;18.60;72.90;;;;;;5002729;28;20116;-65
2021/09/02 10:00:15;;;;;;;13.80;6.32;;;18.60;73.90;;;;;;5003444;28;20401;-66
2021/09/02 10:02:43;;;;;;;15.25;6.10;;;18.40;73.90;;;;;;5007590;28;20030;-66
2021/09/02 10:05:12;;;;;;;14.10;6.47;;;18.60;74.20;;;;;;4984292;28;20607;-66
2021/09/02 10:07:40;;;;;;;10.07;5.80;;;18.70;74.70;;;;;;5004114;28;20314;-65
2021/09/02 10:10:09;;;;;;;15.43;6.25;;;18.80;74.70;;;;;;5006792;28;20052;-64
2021/09/02 10:12:35;;;;;;;16.25;6.00;;;18.70;73.40;;;;;;4998037;28;20052;-66
2021/09/02 10:15:13;;;;;;;15.60;6.47;;;18.80;75.00;;;;;;4995294;28;20041;-63
2021/09/02 10:17:40;;;;;;;14.45;5.65;;;19.00;73.80;;;;;;5000213;28;20030;-65
2021/09/02 10:20:16;;;;;;;15.63;6.68;;;19.20;72.80;;;;;;4999205;28;20105;-66
2021/09/02 10:22:43;;;;;;;12.93;5.90;;;19.20;72.30;;;;;;4984395;28;20473;-66
2021/09/02 10:25:31;;;;;;;15.98;6.63;;;19.10;73.40;;;;;;4996105;28;20170;-65
2021/09/02 10:28:03;;;;;;;12.43;6.28;;;18.90;73.00;;;;;;4995635;28;20032;-66
2021/09/02 10:30:30;;;;;;;16.58;5.82;;;19.20;72.90;;;;;;5004304;28;20022;-65
2021/09/02 10:32:58;;;;;;;17.92;6.38;;;19.30;72.30;;;;;;5001745;28;20018;-64
2021/09/02 10:35:26;;;;;;;13.23;5.95;;;19.40;71.80;;;;;;4999957;28;20343;-64
2021/09/02 10:37:53;;;;;;;13.10;5.88;;;19.20;71.80;;;;;;5000036;28;20106;-66
2021/09/02 10:40:19;;;;;;;13.82;5.88;;;19.10;71.60;;;;;;5004609;28;20037;-66
2021/09/02 10:42:47;;;;;;;16.27;6.18;;;18.90;72.70;;;;;;5004247;28;20022;-66
2021/09/02 10:45:25;;;;;;;12.57;6.10;;;18.90;72.10;;;;;;5001053;28;20539;-65
2021/09/02 10:47:55;;;;;;;13.13;5.88;;;19.00;71.90;;;;;;5001197;28;20034;-67
2021/09/02 10:50:23;;;;;;;10.38;5.70;;;19.20;72.60;;;;;;5004097;28;20030;-64
2021/09/02 10:52:50;;;;;;;11.23;5.25;;;19.40;72.30;;;;;;5002065;28;20084;-64
2021/09/02 10:55:33;;;;;;;14.70;5.50;;;19.20;72.10;;;;;;5003681;28;20030;-65
2021/09/02 10:58:03;;;;;;;15.65;6.55;;;19.10;72.20;;;;;;5003186;28;20068;-65
2021/09/02 11:00:42;;;;;;;12.07;6.03;;;19.30;70.90;;;;;;4998568;28;20117;-64
2021/09/02 11:03:19;;;;;;;14.45;6.35;;;19.30;71.20;;;;;;5004688;28;20095;-66
2021/09/02 11:05:57;;;;;;;9.15;5.38;;;19.40;71.30;;;;;;5005572;28;20077;-66
2021/09/02 11:08:43;;;;;;;12.13;5.50;;;19.30;71.10;;;;;;5004921;28;20145;-65
2021/09/02 11:11:17;;;;;;;13.32;5.03;;;19.30;71.40;;;;;;5009091;28;20401;-64
2021/09/02 11:13:46;;;;;;;11.40;5.22;;;19.40;71.00;;;;;;5003318;28;20029;-65
2021/09/02 11:16:14;;;;;;;11.95;5.40;;;19.70;70.70;;;;;;4997846;28;20037;-66
2021/09/02 11:18:43;;;;;;;14.32;5.90;;;19.60;69.90;;;;;;5003512;28;20096;-66
2021/09/02 11:21:18;;;;;;;12.95;5.43;;;19.80;69.70;;;;;;4996832;28;20021;-66
2021/09/02 11:23:45;;;;;;;12.52;5.35;;;19.80;69.30;;;;;;5005714;28;20117;-66
2021/09/02 11:26:27;;;;;;;13.35;5.60;;;19.90;69.10;;;;;;5001910;28;20041;-66
2021/09/02 11:28:53;;;;;;;15.73;5.43;;;19.70;69.40;;;;;;5007636;28;20029;-64
2021/09/02 11:31:18;;;;;;;14.55;5.60;;;19.80;69.00;;;;;;5002334;28;20036;-66
2021/09/02 11:33:49;;;;;;;17.33;5.95;;;19.70;69.40;;;;;;4987163;28;20226;-66
2021/09/02 11:36:15;;;;;;;14.02;5.82;;;19.60;70.40;;;;;;5004249;28;20026;-64
2021/09/02 11:38:42;;;;;;;10.98;5.80;;;19.70;71.30;;;;;;5007867;28;20024;-66
2021/09/02 11:41:20;;;;;;;14.05;5.57;;;19.60;69.90;;;;;;5005266;28;20036;-65
2021/09/02 11:43:48;;;;;;;13.63;6.28;;;19.60;69.00;;;;;;5008427;28;20052;-64
2021/09/02 11:46:15;;;;;;;15.07;5.32;;;19.60;69.80;;;;;;5007705;28;20040;-64
2021/09/02 11:48:59;;;;;;;16.67;6.10;;;19.60;70.60;;;;;;5014973;28;20329;-66
2021/09/02 11:51:27;;;;;;;14.38;5.40;;;19.50;71.00;;;;;;5007415;28;20038;-66
2021/09/02 11:54:10;;;;;;;9.73;5.45;;;19.70;70.70;;;;;;5009494;28;20022;-66
2021/09/02 11:56:37;;;;;;;15.35;5.80;;;19.80;69.80;;;;;;5007242;28;20065;-65
2021/09/02 11:59:05;;;;;;;10.23;5.43;;;19.50;70.80;;;;;;4990851;28;20030;-64
2021/09/02 12:01:31;;;;;;;13.85;5.68;;;19.40;71.00;;;;;;5007460;28;20076;-66
2021/09/02 12:03:57;;;;;;;16.25;6.32;;;19.30;72.00;;;;;;5008856;28;20097;-66
2021/09/02 12:06:27;;;;;;;12.07;6.22;;;19.20;72.50;;;;;;5006653;28;20035;-65
2021/09/02 12:08:54;;;;;;;13.57;6.68;;;19.30;71.70;;;;;;5006251;28;20212;-66
2021/09/02 12:11:20;;;;;;;18.38;6.20;;;19.40;74.00;;;;;;5005984;28;20026;-65
2021/09/02 12:13:45;;;;;;;16.58;6.28;;;19.50;71.80;;;;;;5015883;28;20037;-66
2021/09/02 12:16:16;;;;;;;12.65;6.00;;;19.50;70.80;;;;;;5006854;28;20030;-64
2021/09/02 12:18:47;;;;;;;14.48;6.07;;;19.60;71.70;;;;;;5007244;28;20366;-65
2021/09/02 12:21:18;;;;;;;15.95;5.82;;;19.70;70.70;;;;;;5007149;28;20041;-66
2021/09/02 12:23:46;;;;;;;14.40;5.90;;;20.00;71.30;;;;;;5004232;28;20057;-64
2021/09/02 12:26:12;;;;;;;11.20;5.53;;;20.10;72.10;;;;;;5007104;28;20029;-66
2021/09/02 12:28:40;;;;;;;16.98;5.80;;;20.10;69.20;;;;;;5015557;28;20034;-66
2021/09/02 12:31:18;;;;;;;11.70;5.60;;;20.20;67.70;;;;;;5006429;28;20041;-66
2021/09/02 12:34:18;;;;;;;12.93;5.40;;;20.30;68.70;;;;;;5006640;28;20353;-66